Brookings, SD (57007)

5:13 PM CST on February 10, 2016 (GMT -0600)
Neighborhood | | Change Station
CLOSE
Current Station
Personal Weather Station
Location: Brookings, SD
Elevation: 1627 ft
Nearby Weather Stations

Elev 1627 ft 44.29 °N, 96.78 °W | Updated 4 minutes ago

Light Snow
Light Snow
14.0 °F
Feels Like 14 °F
N
2.0
Wind Variable Wind from North
Gusts 5.0 mph

Today
High -- | Low -- °F
--% Chance of Precip.
Yesterday
High -- | Low -- °F
Precip. -- in
Pressure 30.20 in
Visibility 9.0 miles
Clouds Overcast 1900 ft
Windchill 14 °F
Dew Point 10 °F
Humidity 83%
Rainfall 0.00 in
Snow Depth Not available.
7:34 AM 5:48 PM
Waxing Crescent, 8% visible
METAR KBKX 102256Z AUTO 09009KT 9SM -SN OVC019 M11/M14 A3006 RMK AO2 SNB31 SLP225 P0000 T11111139 FZRANO
Pressure 30.20 in
Visibility 9.0 miles
Clouds Overcast 1900 ft
Windchill 14 °F
Dew Point 10 °F
Humidity 83%
Rainfall 0.00 in
Snow Depth Not available.
7:34 AM 5:48 PM
Waxing Crescent, 8% visible
METAR KBKX 102256Z AUTO 09009KT 9SM -SN OVC019 M11/M14 A3006 RMK AO2 SNB31 SLP225 P0000 T11111139 FZRANO

10-Day Weather Forecast

Almanac

Astronomy

Feb. 10, 2016 Rise Set
Actual Time
Civil Twilight
Nautical Twilight
Astronomical Twilight
Moon
Length of Visible Light
Length of Day
Tomorrow will be .
, % of the Moon is Illuminated

Today's Extremes

State Highs State Lows

Community

WunderPhotos

Upload Photos

1,891,933 photos uploaded!

WunderBlog® & News

Nearby

Air Quality

  Air Quality AQ Index Pollutant
Not available.

Snow Depth

Station Depth Elevation

Earthquake Activity

City Distance Mag. Time & Date
Minimum magnitude displayed is 2.5.

Coastal Water Temperatures

Place Temperature

Stations

Nearby Weather Stations

Station Location Temp. Windchill Dew Point Humidity Wind Precip. Elev Updated Type
                   

Watches & Warnings

There are currently no watches in effect.